sensor_id;sensor_type;location;lat;lon;timestamp;pressure;altitude;pressure_sealevel;temperature;humidity
19783;BME280;10051;40.294;-3.754;2023-12-04T00:01:17;94289.22;;;8.01;100.00
19783;BME280;10051;40.294;-3.754;2023-12-04T00:03:43;94294.16;;;7.98;100.00
19783;BME280;10051;40.294;-3.754;2023-12-04T00:06:10;94290.25;;;7.95;100.00
19783;BME280;10051;40.294;-3.754;2023-12-04T00:08:36;94248.81;;;7.66;100.00
19783;BME280;10051;40.294;-3.754;2023-12-04T00:11:04;94192.41;;;7.22;100.00
19783;BME280;10051;40.294;-3.754;2023-12-04T00:13:30;94279.47;;;7.81;100.00
19783;BME280;10051;40.294;-3.754;2023-12-04T00:15:55;94212.59;;;7.27;100.00
19783;BME280;10051;40.294;-3.754;2023-12-04T00:18:21;94242.25;;;7.64;100.00
19783;BME280;10051;40.294;-3.754;2023-12-04T00:20:46;94275.59;;;7.99;100.00
19783;BME280;10051;40.294;-3.754;2023-12-04T00:23:12;94202.69;;;7.50;100.00
19783;BME280;10051;40.294;-3.754;2023-12-04T00:25:38;94210.34;;;7.67;100.00
19783;BME280;10051;40.294;-3.754;2023-12-04T00:28:03;94300.25;;;8.19;100.00
19783;BME280;10051;40.294;-3.754;2023-12-04T00:30:29;94255.41;;;7.84;100.00
19783;BME280;10051;40.294;-3.754;2023-12-04T00:32:55;94268.00;;;7.93;100.00
19783;BME280;10051;40.294;-3.754;2023-12-04T00:35:20;94293.13;;;8.04;100.00
19783;BME280;10051;40.294;-3.754;2023-12-04T00:37:46;94307.06;;;8.20;100.00
19783;BME280;10051;40.294;-3.754;2023-12-04T00:40:12;94261.41;;;7.85;100.00
19783;BME280;10051;40.294;-3.754;2023-12-04T00:42:37;94267.97;;;7.87;100.00
19783;BME280;10051;40.294;-3.754;2023-12-04T00:45:03;94300.22;;;8.03;100.00
19783;BME280;10051;40.294;-3.754;2023-12-04T00:47:29;94281.09;;;7.93;100.00
19783;BME280;10051;40.294;-3.754;2023-12-04T00:49:54;94232.78;;;7.52;100.00
19783;BME280;10051;40.294;-3.754;2023-12-04T00:52:20;94281.09;;;7.93;100.00
19783;BME280;10051;40.294;-3.754;2023-12-04T00:54:45;94224.69;;;7.49;100.00
19783;BME280;10051;40.294;-3.754;2023-12-04T00:57:11;94172.97;;;6.97;100.00
19783;BME280;10051;40.294;-3.754;2023-12-04T00:59:37;94184.53;;;7.12;100.00
19783;BME280;10051;40.294;-3.754;2023-12-04T01:02:02;94262.91;;;7.55;100.00
19783;BME280;10051;40.294;-3.754;2023-12-04T01:04:28;94229.06;;;7.33;100.00
19783;BME280;10051;40.294;-3.754;2023-12-04T01:06:53;94205.72;;;7.10;100.00
19783;BME280;10051;40.294;-3.754;2023-12-04T01:09:19;94223.03;;;7.27;100.00
19783;BME280;10051;40.294;-3.754;2023-12-04T01:11:55;94167.47;;;6.99;100.00
19783;BME280;10051;40.294;-3.754;2023-12-04T01:14:21;94233.53;;;7.37;100.00
19783;BME280;10051;40.294;-3.754;2023-12-04T01:16:47;94138.66;;;6.78;100.00
19783;BME280;10051;40.294;-3.754;2023-12-04T01:19:13;94179.50;;;7.00;100.00
19783;BME280;10051;40.294;-3.754;2023-12-04T01:21:38;94235.09;;;7.28;100.00
19783;BME280;10051;40.294;-3.754;2023-12-04T01:24:04;94250.25;;;7.31;100.00
19783;BME280;10051;40.294;-3.754;2023-12-04T01:26:30;94205.69;;;7.05;100.00
19783;BME280;10051;40.294;-3.754;2023-12-04T01:28:55;94192.31;;;6.96;100.00
19783;BME280;10051;40.294;-3.754;2023-12-04T01:31:21;94224.53;;;7.07;100.00
19783;BME280;10051;40.294;-3.754;2023-12-04T01:33:46;94178.94;;;6.93;100.00
19783;BME280;10051;40.294;-3.754;2023-12-04T01:36:12;94163.41;;;6.70;100.00
19783;BME280;10051;40.294;-3.754;2023-12-04T01:38:38;94226.94;;;7.24;100.00
19783;BME280;10051;40.294;-3.754;2023-12-04T01:41:04;94188.16;;;7.01;100.00
19783;BME280;10051;40.294;-3.754;2023-12-04T01:43:30;94241.84;;;7.29;100.00
19783;BME280;10051;40.294;-3.754;2023-12-04T01:45:56;94177.34;;;6.87;100.00
19783;BME280;10051;40.294;-3.754;2023-12-04T01:48:23;94216.16;;;7.10;100.00
19783;BME280;10051;40.294;-3.754;2023-12-04T01:50:51;94228.16;;;7.06;100.00
19783;BME280;10051;40.294;-3.754;2023-12-04T01:53:17;94234.56;;;7.26;100.00
19783;BME280;10051;40.294;-3.754;2023-12-04T01:55:46;94219.59;;;7.21;100.00
19783;BME280;10051;40.294;-3.754;2023-12-04T01:58:12;94170.28;;;6.82;100.00
19783;BME280;10051;40.294;-3.754;2023-12-04T02:00:37;94176.06;;;6.89;100.00
19783;BME280;10051;40.294;-3.754;2023-12-04T02:03:03;94154.84;;;6.75;100.00
19783;BME280;10051;40.294;-3.754;2023-12-04T02:05:29;94152.25;;;6.80;100.00
19783;BME280;10051;40.294;-3.754;2023-12-04T02:07:56;94167.44;;;6.94;100.00
19783;BME280;10051;40.294;-3.754;2023-12-04T02:10:22;94203.09;;;7.10;100.00
19783;BME280;10051;40.294;-3.754;2023-12-04T02:12:49;94194.97;;;7.02;100.00
19783;BME280;10051;40.294;-3.754;2023-12-04T02:15:15;94176.63;;;6.96;100.00
19783;BME280;10051;40.294;-3.754;2023-12-04T02:17:43;94190.78;;;7.01;100.00
19783;BME280;10051;40.294;-3.754;2023-12-04T02:20:09;94141.66;;;6.54;100.00
19783;BME280;10051;40.294;-3.754;2023-12-04T02:22:37;94177.81;;;6.73;100.00
19783;BME280;10051;40.294;-3.754;2023-12-04T02:25:03;94125.91;;;6.39;100.00
19783;BME280;10051;40.294;-3.754;2023-12-04T02:27:38;94188.34;;;6.83;100.00
19783;BME280;10051;40.294;-3.754;2023-12-04T02:30:08;94193.03;;;6.81;100.00
19783;BME280;10051;40.294;-3.754;2023-12-04T02:32:38;94229.25;;;7.10;100.00
19783;BME280;10051;40.294;-3.754;2023-12-04T02:35:06;94188.84;;;6.85;100.00
19783;BME280;10051;40.294;-3.754;2023-12-04T02:37:34;94171.59;;;6.79;100.00
19783;BME280;10051;40.294;-3.754;2023-12-04T02:40:00;94195.13;;;6.90;100.00
19783;BME280;10051;40.294;-3.754;2023-12-04T02:42:25;94214.84;;;7.03;100.00
19783;BME280;10051;40.294;-3.754;2023-12-04T02:44:51;94216.66;;;7.02;100.00
19783;BME280;10051;40.294;-3.754;2023-12-04T02:47:17;94178.31;;;6.70;100.00
19783;BME280;10051;40.294;-3.754;2023-12-04T02:49:43;94214.53;;;6.99;100.00
19783;BME280;10051;40.294;-3.754;2023-12-04T02:52:08;94156.41;;;6.76;100.00
19783;BME280;10051;40.294;-3.754;2023-12-04T02:54:34;94186.81;;;6.98;100.00
19783;BME280;10051;40.294;-3.754;2023-12-04T02:57:00;94204.38;;;7.08;100.00
19783;BME280;10051;40.294;-3.754;2023-12-04T02:59:25;94176.34;;;6.93;100.00
19783;BME280;10051;40.294;-3.754;2023-12-04T03:01:51;94225.56;;;7.06;100.00
19783;BME280;10051;40.294;-3.754;2023-12-04T03:04:16;94212.72;;;6.99;100.00
19783;BME280;10051;40.294;-3.754;2023-12-04T03:06:42;94172.81;;;6.66;100.00
19783;BME280;10051;40.294;-3.754;2023-12-04T03:09:07;94211.19;;;7.09;100.00
19783;BME280;10051;40.294;-3.754;2023-12-04T03:11:33;94221.97;;;7.18;100.00
19783;BME280;10051;40.294;-3.754;2023-12-04T03:13:59;94195.75;;;7.07;100.00
19783;BME280;10051;40.294;-3.754;2023-12-04T03:16:25;94163.25;;;6.88;100.00
19783;BME280;10051;40.294;-3.754;2023-12-04T03:18:51;94163.75;;;6.84;100.00
19783;BME280;10051;40.294;-3.754;2023-12-04T03:21:16;94148.53;;;6.71;100.00
19783;BME280;10051;40.294;-3.754;2023-12-04T03:23:42;94195.47;;;6.98;100.00
19783;BME280;10051;40.294;-3.754;2023-12-04T03:26:08;94135.41;;;6.61;100.00
19783;BME280;10051;40.294;-3.754;2023-12-04T03:28:34;94197.28;;;6.98;100.00
19783;BME280;10051;40.294;-3.754;2023-12-04T03:31:00;94154.03;;;6.75;100.00
19783;BME280;10051;40.294;-3.754;2023-12-04T03:33:25;94109.97;;;6.40;100.00
19783;BME280;10051;40.294;-3.754;2023-12-04T03:35:51;94139.88;;;6.65;100.00
19783;BME280;10051;40.294;-3.754;2023-12-04T03:38:16;94095.59;;;6.43;100.00
19783;BME280;10051;40.294;-3.754;2023-12-04T03:40:42;94136.81;;;6.79;100.00
19783;BME280;10051;40.294;-3.754;2023-12-04T03:43:07;94102.56;;;6.75;100.00
19783;BME280;10051;40.294;-3.754;2023-12-04T03:45:33;94106.44;;;6.62;100.00
19783;BME280;10051;40.294;-3.754;2023-12-04T03:47:59;94114.84;;;6.80;100.00
19783;BME280;10051;40.294;-3.754;2023-12-04T03:50:24;94165.47;;;7.17;100.00
19783;BME280;10051;40.294;-3.754;2023-12-04T03:52:50;94118.25;;;6.75;100.00
19783;BME280;10051;40.294;-3.754;2023-12-04T03:55:15;94163.81;;;7.00;100.00
19783;BME280;10051;40.294;-3.754;2023-12-04T03:57:41;94119.31;;;6.79;100.00
19783;BME280;10051;40.294;-3.754;2023-12-04T04:00:09;94145.53;;;7.00;100.00
19783;BME280;10051;40.294;-3.754;2023-12-04T04:02:35;94106.78;;;6.81;100.00
19783;BME280;10051;40.294;-3.754;2023-12-04T04:05:00;94159.44;;;7.21;100.00
19783;BME280;10051;40.294;-3.754;2023-12-04T04:07:26;94114.63;;;6.92;100.00
19783;BME280;10051;40.294;-3.754;2023-12-04T04:09:52;94164.97;;;7.30;100.00
19783;BME280;10051;40.294;-3.754;2023-12-04T04:12:17;94073.28;;;6.73;100.00
19783;BME280;10051;40.294;-3.754;2023-12-04T04:14:43;94149.25;;;7.20;100.00
19783;BME280;10051;40.294;-3.754;2023-12-04T04:17:10;94131.94;;;7.03;100.00
19783;BME280;10051;40.294;-3.754;2023-12-04T04:19:36;94107.03;;;6.85;100.00
19783;BME280;10051;40.294;-3.754;2023-12-04T04:22:01;94139.03;;;7.13;100.00
19783;BME280;10051;40.294;-3.754;2023-12-04T04:24:28;94156.84;;;7.21;100.00
19783;BME280;10051;40.294;-3.754;2023-12-04T04:26:53;94068.31;;;6.72;100.00
19783;BME280;10051;40.294;-3.754;2023-12-04T04:29:19;94144.81;;;7.20;100.00
19783;BME280;10051;40.294;-3.754;2023-12-04T04:31:44;94115.75;;;7.11;100.00
19783;BME280;10051;40.294;-3.754;2023-12-04T04:34:10;94140.41;;;7.26;100.00
19783;BME280;10051;40.294;-3.754;2023-12-04T04:36:36;94069.13;;;6.88;100.00
19783;BME280;10051;40.294;-3.754;2023-12-04T04:39:02;94070.97;;;6.87;100.00
19783;BME280;10051;40.294;-3.754;2023-12-04T04:41:27;94105.31;;;7.11;100.00
19783;BME280;10051;40.294;-3.754;2023-12-04T04:43:53;94090.34;;;6.96;100.00
19783;BME280;10051;40.294;-3.754;2023-12-04T04:46:19;94063.09;;;6.77;100.00
19783;BME280;10051;40.294;-3.754;2023-12-04T04:48:44;94079.63;;;6.93;100.00
19783;BME280;10051;40.294;-3.754;2023-12-04T04:51:10;94108.16;;;7.10;100.00
19783;BME280;10051;40.294;-3.754;2023-12-04T04:53:35;94103.44;;;7.02;100.00
19783;BME280;10051;40.294;-3.754;2023-12-04T04:56:01;94111.06;;;7.19;100.00
19783;BME280;10051;40.294;-3.754;2023-12-04T04:58:26;94093.81;;;7.18;100.00
19783;BME280;10051;40.294;-3.754;2023-12-04T05:00:52;94066.53;;;6.93;100.00
19783;BME280;10051;40.294;-3.754;2023-12-04T05:03:17;94113.72;;;7.24;100.00
19783;BME280;10051;40.294;-3.754;2023-12-04T05:05:43;94090.91;;;7.09;100.00
19783;BME280;10051;40.294;-3.754;2023-12-04T05:08:08;94106.38;;;7.21;100.00
19783;BME280;10051;40.294;-3.754;2023-12-04T05:10:34;94142.50;;;7.39;100.00
19783;BME280;10051;40.294;-3.754;2023-12-04T05:13:00;94131.00;;;7.40;100.00
19783;BME280;10051;40.294;-3.754;2023-12-04T05:15:25;94080.41;;;6.93;100.00
19783;BME280;10051;40.294;-3.754;2023-12-04T05:17:51;94100.31;;;6.99;100.00
19783;BME280;10051;40.294;-3.754;2023-12-04T05:20:17;94101.88;;;7.01;100.00
19783;BME280;10051;40.294;-3.754;2023-12-04T05:22:42;94099.78;;;7.08;100.00
19783;BME280;10051;40.294;-3.754;2023-12-04T05:25:08;94103.22;;;7.13;100.00
19783;BME280;10051;40.294;-3.754;2023-12-04T05:27:33;94135.66;;;7.23;100.00
19783;BME280;10051;40.294;-3.754;2023-12-04T05:29:59;94094.75;;;6.91;100.00
19783;BME280;10051;40.294;-3.754;2023-12-04T05:32:24;94151.91;;;7.25;100.00
19783;BME280;10051;40.294;-3.754;2023-12-04T05:34:50;94141.16;;;7.21;100.00
19783;BME280;10051;40.294;-3.754;2023-12-04T05:37:16;94135.66;;;7.18;100.00
19783;BME280;10051;40.294;-3.754;2023-12-04T05:39:41;94018.34;;;6.58;100.00
19783;BME280;10051;40.294;-3.754;2023-12-04T05:42:07;94147.72;;;7.39;100.00
19783;BME280;10051;40.294;-3.754;2023-12-04T05:44:33;94075.97;;;6.94;100.00
19783;BME280;10051;40.294;-3.754;2023-12-04T05:47:00;94083.56;;;6.95;100.00
19783;BME280;10051;40.294;-3.754;2023-12-04T05:49:25;94137.00;;;7.36;100.00
19783;BME280;10051;40.294;-3.754;2023-12-04T05:51:51;94082.00;;;6.94;100.00
19783;BME280;10051;40.294;-3.754;2023-12-04T05:54:16;94059.66;;;6.66;100.00
19783;BME280;10051;40.294;-3.754;2023-12-04T05:56:42;94124.91;;;7.14;100.00
19783;BME280;10051;40.294;-3.754;2023-12-04T05:59:08;94120.47;;;7.09;100.00
19783;BME280;10051;40.294;-3.754;2023-12-04T06:01:33;94094.75;;;6.85;100.00
19783;BME280;10051;40.294;-3.754;2023-12-04T06:03:59;94101.03;;;6.90;100.00
19783;BME280;10051;40.294;-3.754;2023-12-04T06:06:24;94104.97;;;6.92;100.00
19783;BME280;10051;40.294;-3.754;2023-12-04T06:08:50;94133.56;;;7.20;100.00
19783;BME280;10051;40.294;-3.754;2023-12-04T06:11:16;94098.72;;;6.93;100.00
19783;BME280;10051;40.294;-3.754;2023-12-04T06:13:41;94119.94;;;7.07;100.00
19783;BME280;10051;40.294;-3.754;2023-12-04T06:16:07;94147.69;;;7.19;100.00
19783;BME280;10051;40.294;-3.754;2023-12-04T06:18:33;94090.03;;;6.77;100.00
19783;BME280;10051;40.294;-3.754;2023-12-04T06:20:58;94101.56;;;6.92;100.00
19783;BME280;10051;40.294;-3.754;2023-12-04T06:23:24;94064.09;;;6.65;100.00
19783;BME280;10051;40.294;-3.754;2023-12-04T06:25:50;94106.25;;;6.84;100.00
19783;BME280;10051;40.294;-3.754;2023-12-04T06:28:16;94148.66;;;7.02;100.00
19783;BME280;10051;40.294;-3.754;2023-12-04T06:30:41;94045.72;;;6.39;100.00
19783;BME280;10051;40.294;-3.754;2023-12-04T06:33:07;94169.91;;;7.16;100.00
19783;BME280;10051;40.294;-3.754;2023-12-04T06:35:33;94138.72;;;6.99;100.00
19783;BME280;10051;40.294;-3.754;2023-12-04T06:38:05;94124.31;;;6.91;100.00
19783;BME280;10051;40.294;-3.754;2023-12-04T06:40:31;94120.88;;;6.80;100.00
19783;BME280;10051;40.294;-3.754;2023-12-04T06:42:57;94116.69;;;6.84;100.00
19783;BME280;10051;40.294;-3.754;2023-12-04T06:45:23;94149.47;;;7.03;100.00
19783;BME280;10051;40.294;-3.754;2023-12-04T06:47:50;94148.72;;;7.18;100.00
19783;BME280;10051;40.294;-3.754;2023-12-04T06:50:16;94158.63;;;7.10;100.00
19783;BME280;10051;40.294;-3.754;2023-12-04T06:52:42;94136.59;;;6.91;100.00
19783;BME280;10051;40.294;-3.754;2023-12-04T06:55:08;94125.06;;;6.76;100.00
19783;BME280;10051;40.294;-3.754;2023-12-04T06:57:34;94153.41;;;7.10;100.00
19783;BME280;10051;40.294;-3.754;2023-12-04T06:59:59;94157.09;;;7.14;100.00
19783;BME280;10051;40.294;-3.754;2023-12-04T07:02:25;94140.25;;;6.90;100.00
19783;BME280;10051;40.294;-3.754;2023-12-04T07:04:51;94162.78;;;7.01;100.00
19783;BME280;10051;40.294;-3.754;2023-12-04T07:07:16;94161.72;;;6.97;100.00
19783;BME280;10051;40.294;-3.754;2023-12-04T07:09:42;94182.72;;;7.18;100.00
19783;BME280;10051;40.294;-3.754;2023-12-04T07:12:07;94185.88;;;7.20;100.00
19783;BME280;10051;40.294;-3.754;2023-12-04T07:14:33;94173.81;;;7.13;100.00
19783;BME280;10051;40.294;-3.754;2023-12-04T07:16:59;94134.47;;;6.88;100.00
19783;BME280;10051;40.294;-3.754;2023-12-04T07:19:25;94166.19;;;7.07;100.00
19783;BME280;10051;40.294;-3.754;2023-12-04T07:21:52;94176.44;;;7.13;100.00
19783;BME280;10051;40.294;-3.754;2023-12-04T07:24:18;94179.06;;;7.13;100.00
19783;BME280;10051;40.294;-3.754;2023-12-04T07:26:43;94178.78;;;7.15;100.00
19783;BME280;10051;40.294;-3.754;2023-12-04T07:29:09;94162.81;;;7.11;100.00
19783;BME280;10051;40.294;-3.754;2023-12-04T07:31:34;94143.41;;;6.97;100.00
19783;BME280;10051;40.294;-3.754;2023-12-04T07:34:00;94191.09;;;7.20;100.00
19783;BME280;10051;40.294;-3.754;2023-12-04T07:36:27;94184.53;;;7.17;100.00
19783;BME280;10051;40.294;-3.754;2023-12-04T07:38:55;94147.88;;;6.96;100.00
19783;BME280;10051;40.294;-3.754;2023-12-04T07:41:21;94171.66;;;7.00;100.00
19783;BME280;10051;40.294;-3.754;2023-12-04T07:43:49;94172.19;;;7.02;100.00
19783;BME280;10051;40.294;-3.754;2023-12-04T07:46:15;94157.09;;;7.14;100.00
19783;BME280;10051;40.294;-3.754;2023-12-04T07:48:41;94190.09;;;7.26;100.00
19783;BME280;10051;40.294;-3.754;2023-12-04T07:51:09;94132.41;;;6.90;100.00
19783;BME280;10051;40.294;-3.754;2023-12-04T07:53:34;94163.06;;;7.10;100.00
19783;BME280;10051;40.294;-3.754;2023-12-04T07:56:03;94144.94;;;6.88;100.00
19783;BME280;10051;40.294;-3.754;2023-12-04T07:58:30;94187.66;;;7.14;100.00
19783;BME280;10051;40.294;-3.754;2023-12-04T08:00:57;94170.13;;;7.09;100.00
19783;BME280;10051;40.294;-3.754;2023-12-04T08:03:22;94177.97;;;7.04;100.00
19783;BME280;10051;40.294;-3.754;2023-12-04T08:05:50;94213.09;;;7.24;100.00
19783;BME280;10051;40.294;-3.754;2023-12-04T08:08:15;94208.06;;;7.12;100.00
19783;BME280;10051;40.294;-3.754;2023-12-04T08:10:41;94202.81;;;7.12;100.00
19783;BME280;10051;40.294;-3.754;2023-12-04T08:13:06;94230.88;;;7.22;100.00
19783;BME280;10051;40.294;-3.754;2023-12-04T08:15:32;94174.00;;;6.91;100.00
19783;BME280;10051;40.294;-3.754;2023-12-04T08:17:58;94187.34;;;7.00;100.00
19783;BME280;10051;40.294;-3.754;2023-12-04T08:20:23;94171.06;;;6.88;100.00
19783;BME280;10051;40.294;-3.754;2023-12-04T08:22:49;94219.91;;;7.25;100.00
19783;BME280;10051;40.294;-3.754;2023-12-04T08:25:14;94235.59;;;7.25;100.00
19783;BME280;10051;40.294;-3.754;2023-12-04T08:27:40;94206.25;;;7.12;100.00
19783;BME280;10051;40.294;-3.754;2023-12-04T08:30:06;94192.34;;;7.07;100.00
19783;BME280;10051;40.294;-3.754;2023-12-04T08:32:32;94213.59;;;7.21;100.00
19783;BME280;10051;40.294;-3.754;2023-12-04T08:34:57;94182.06;;;6.90;100.00
19783;BME280;10051;40.294;-3.754;2023-12-04T08:37:23;94221.97;;;7.18;100.00
19783;BME280;10051;40.294;-3.754;2023-12-04T08:39:48;94207.53;;;7.05;100.00
19783;BME280;10051;40.294;-3.754;2023-12-04T08:42:14;94241.09;;;7.28;100.00
19783;BME280;10051;40.294;-3.754;2023-12-04T08:44:39;94211.91;;;6.99;100.00
19783;BME280;10051;40.294;-3.754;2023-12-04T08:47:05;94255.19;;;7.22;100.00
19783;BME280;10051;40.294;-3.754;2023-12-04T08:49:31;94213.22;;;6.96;100.00
19783;BME280;10051;40.294;-3.754;2023-12-04T08:51:58;94197.72;;;6.84;100.00
19783;BME280;10051;40.294;-3.754;2023-12-04T08:54:24;94239.78;;;7.26;100.00
19783;BME280;10051;40.294;-3.754;2023-12-04T08:56:49;94151.38;;;6.59;100.00
19783;BME280;10051;40.294;-3.754;2023-12-04T08:59:15;94225.06;;;7.14;100.00
19783;BME280;10051;40.294;-3.754;2023-12-04T09:01:42;94198.81;;;6.94;100.00
19783;BME280;10051;40.294;-3.754;2023-12-04T09:04:08;94225.88;;;7.20;100.00
19783;BME280;10051;40.294;-3.754;2023-12-04T09:06:35;94172.66;;;6.83;100.00
19783;BME280;10051;40.294;-3.754;2023-12-04T09:09:00;94129.63;;;6.53;100.00
19783;BME280;10051;40.294;-3.754;2023-12-04T09:11:26;94210.91;;;7.05;100.00
19783;BME280;10051;40.294;-3.754;2023-12-04T09:13:51;94246.59;;;7.37;100.00
19783;BME280;10051;40.294;-3.754;2023-12-04T09:16:17;94217.00;;;7.26;100.00
19783;BME280;10051;40.294;-3.754;2023-12-04T09:18:43;94245.84;;;7.42;100.00
19783;BME280;10051;40.294;-3.754;2023-12-04T09:21:08;94230.91;;;7.37;100.00
19783;BME280;10051;40.294;-3.754;2023-12-04T09:23:35;94187.09;;;7.07;100.00
19783;BME280;10051;40.294;-3.754;2023-12-04T09:26:00;94251.34;;;7.46;100.00
19783;BME280;10051;40.294;-3.754;2023-12-04T09:28:26;94234.34;;;7.38;100.00
19783;BME280;10051;40.294;-3.754;2023-12-04T09:30:52;94256.06;;;7.49;100.00
19783;BME280;10051;40.294;-3.754;2023-12-04T09:33:18;94267.34;;;7.49;100.00
19783;BME280;10051;40.294;-3.754;2023-12-04T09:35:44;94260.81;;;7.57;100.00
19783;BME280;10051;40.294;-3.754;2023-12-04T09:38:10;94230.16;;;7.42;100.00
19783;BME280;10051;40.294;-3.754;2023-12-04T09:40:35;94224.63;;;7.38;100.00
19783;BME280;10051;40.294;-3.754;2023-12-04T09:43:01;94243.00;;;7.54;100.00
19783;BME280;10051;40.294;-3.754;2023-12-04T09:45:28;94238.84;;;7.58;100.00
19783;BME280;10051;40.294;-3.754;2023-12-04T09:47:55;94213.66;;;7.41;100.00
19783;BME280;10051;40.294;-3.754;2023-12-04T09:50:21;94281.81;;;7.83;100.00
19783;BME280;10051;40.294;-3.754;2023-12-04T09:52:51;94279.47;;;7.81;100.00
19783;BME280;10051;40.294;-3.754;2023-12-04T09:55:18;94264.53;;;7.71;100.00
19783;BME280;10051;40.294;-3.754;2023-12-04T09:57:46;94270.31;;;7.89;100.00
19783;BME280;10051;40.294;-3.754;2023-12-04T10:00:13;94284.97;;;7.85;100.00
19783;BME280;10051;40.294;-3.754;2023-12-04T10:02:40;94249.06;;;7.65;100.00
19783;BME280;10051;40.294;-3.754;2023-12-04T10:05:07;94286.03;;;7.84;100.00
19783;BME280;10051;40.294;-3.754;2023-12-04T10:07:32;94309.88;;;7.87;100.00
19783;BME280;10051;40.294;-3.754;2023-12-04T10:09:58;94283.91;;;7.70;100.00
19783;BME280;10051;40.294;-3.754;2023-12-04T10:12:25;94302.78;;;7.83;100.00
19783;BME280;10051;40.294;-3.754;2023-12-04T10:15:07;94297.81;;;7.81;100.00
19783;BME280;10051;40.294;-3.754;2023-12-04T10:17:38;94253.47;;;7.54;100.00
19783;BME280;10051;40.294;-3.754;2023-12-04T10:20:14;94281.50;;;7.58;100.00
19783;BME280;10051;40.294;-3.754;2023-12-04T10:23:00;94310.41;;;7.89;100.00
19783;BME280;10051;40.294;-3.754;2023-12-04T10:25:28;94304.63;;;7.87;100.00
19783;BME280;10051;40.294;-3.754;2023-12-04T10:28:06;94306.94;;;7.79;100.00
19783;BME280;10051;40.294;-3.754;2023-12-04T10:30:32;94254.53;;;7.58;100.00
19783;BME280;10051;40.294;-3.754;2023-12-04T10:32:59;94296.28;;;7.91;100.00
19783;BME280;10051;40.294;-3.754;2023-12-04T10:35:30;94300.19;;;7.93;100.00
19783;BME280;10051;40.294;-3.754;2023-12-04T10:37:59;94316.97;;;8.02;100.00
19783;BME280;10051;40.294;-3.754;2023-12-04T10:40:29;94294.44;;;7.96;100.00
19783;BME280;10051;40.294;-3.754;2023-12-04T10:43:20;94308.59;;;8.00;100.00
19783;BME280;10051;40.294;-3.754;2023-12-04T10:45:47;94311.22;;;8.06;100.00
19783;BME280;10051;40.294;-3.754;2023-12-04T10:48:15;94284.50;;;8.03;100.00
19783;BME280;10051;40.294;-3.754;2023-12-04T10:50:43;94300.50;;;8.17;100.00
19783;BME280;10051;40.294;-3.754;2023-12-04T10:53:12;94251.22;;;7.83;100.00
19783;BME280;10051;40.294;-3.754;2023-12-04T10:55:41;94301.28;;;8.08;100.00
19783;BME280;10051;40.294;-3.754;2023-12-04T10:58:12;94276.88;;;7.86;100.00
19783;BME280;10051;40.294;-3.754;2023-12-04T11:00:44;94276.13;;;7.96;100.00
19783;BME280;10051;40.294;-3.754;2023-12-04T11:03:14;94309.16;;;8.28;100.00
19783;BME280;10051;40.294;-3.754;2023-12-04T11:05:43;94266.72;;;8.06;100.00
19783;BME280;10051;40.294;-3.754;2023-12-04T11:08:11;94233.66;;;7.79;100.00
19783;BME280;10051;40.294;-3.754;2023-12-04T11:10:55;94317.56;;;8.41;100.00
19783;BME280;10051;40.294;-3.754;2023-12-04T11:13:25;94279.28;;;8.19;100.00
19783;BME280;10051;40.294;-3.754;2023-12-04T11:15:52;94271.72;;;8.23;100.00
19783;BME280;10051;40.294;-3.754;2023-12-04T11:18:23;94303.16;;;8.38;100.00
19783;BME280;10051;40.294;-3.754;2023-12-04T11:20:56;94270.38;;;8.25;100.00
19783;BME280;10051;40.294;-3.754;2023-12-04T11:23:23;94263.88;;;8.33;100.00
19783;BME280;10051;40.294;-3.754;2023-12-04T11:25:49;94281.66;;;8.46;100.00
19783;BME280;10051;40.294;-3.754;2023-12-04T11:28:16;94245.78;;;8.31;100.00
19783;BME280;10051;40.294;-3.754;2023-12-04T11:30:42;94283.28;;;8.63;100.00
19783;BME280;10051;40.294;-3.754;2023-12-04T11:33:09;94287.72;;;8.68;100.00
19783;BME280;10051;40.294;-3.754;2023-12-04T11:35:36;94268.88;;;8.55;100.00
19783;BME280;10051;40.294;-3.754;2023-12-04T11:38:05;94271.22;;;8.62;100.00
19783;BME280;10051;40.294;-3.754;2023-12-04T11:40:32;94201.75;;;8.08;100.00
19783;BME280;10051;40.294;-3.754;2023-12-04T11:42:58;94264.94;;;8.68;100.00
19783;BME280;10051;40.294;-3.754;2023-12-04T11:45:23;94159.34;;;8.00;100.00
19783;BME280;10051;40.294;-3.754;2023-12-04T11:47:55;94236.88;;;8.63;100.00
19783;BME280;10051;40.294;-3.754;2023-12-04T11:50:22;94226.13;;;8.60;100.00
19783;BME280;10051;40.294;-3.754;2023-12-04T11:52:49;94253.13;;;8.81;100.00
19783;BME280;10051;40.294;-3.754;2023-12-04T11:55:20;94260.44;;;8.95;100.00
19783;BME280;10051;40.294;-3.754;2023-12-04T11:57:49;94196.25;;;8.56;100.00
19783;BME280;10051;40.294;-3.754;2023-12-04T12:00:19;94237.34;;;9.02;100.00
19783;BME280;10051;40.294;-3.754;2023-12-04T12:03:06;94237.88;;;9.04;100.00
19783;BME280;10051;40.294;-3.754;2023-12-04T12:05:34;94220.03;;;9.01;100.00
19783;BME280;10051;40.294;-3.754;2023-12-04T12:08:03;94233.63;;;9.13;100.00
19783;BME280;10051;40.294;-3.754;2023-12-04T12:10:30;94223.66;;;9.15;100.00
19783;BME280;10051;40.294;-3.754;2023-12-04T12:12:56;94180.22;;;8.83;100.00
19783;BME280;10051;40.294;-3.754;2023-12-04T12:15:22;94174.41;;;9.02;100.00
19783;BME280;10051;40.294;-3.754;2023-12-04T12:17:49;94220.84;;;9.62;100.00
19783;BME280;10051;40.294;-3.754;2023-12-04T12:20:15;94166.38;;;9.38;100.00
19783;BME280;10051;40.294;-3.754;2023-12-04T12:22:41;94196.03;;;9.89;100.00
19783;BME280;10051;40.294;-3.754;2023-12-04T12:25:10;94201.56;;;10.22;100.00
19783;BME280;10051;40.294;-3.754;2023-12-04T12:27:36;94163.44;;;10.24;100.00
19783;BME280;10051;40.294;-3.754;2023-12-04T12:30:02;94154.16;;;10.37;100.00
19783;BME280;10051;40.294;-3.754;2023-12-04T12:32:31;94111.63;;;10.30;100.00
19783;BME280;10051;40.294;-3.754;2023-12-04T12:34:56;94144.69;;;10.66;100.00
19783;BME280;10051;40.294;-3.754;2023-12-04T12:37:22;94169.09;;;10.96;100.00
19783;BME280;10051;40.294;-3.754;2023-12-04T12:39:48;94197.53;;;11.18;100.00
19783;BME280;10051;40.294;-3.754;2023-12-04T12:42:29;94202.81;;;11.18;100.00
19783;BME280;10051;40.294;-3.754;2023-12-04T12:44:55;94116.25;;;10.44;100.00
19783;BME280;10051;40.294;-3.754;2023-12-04T12:47:24;94214.59;;;10.96;100.00